sensor_id;sensor_type;location;lat;lon;timestamp;P1;P2;P0
82815;PMS5003;72570;46.826;-71.244;2023-09-19T00:04:35;7.86;6.77;3.91
82815;PMS5003;72570;46.826;-71.244;2023-09-19T00:07:01;6.86;6.67;3.19
82815;PMS5003;72570;46.826;-71.244;2023-09-19T00:09:29;7.82;7.82;3.41
82815;PMS5003;72570;46.826;-71.244;2023-09-19T00:11:54;6.45;6.14;3.55
82815;PMS5003;72570;46.826;-71.244;2023-09-19T00:14:20;10.1;8.14;4.05
82815;PMS5003;72570;46.826;-71.244;2023-09-19T00:16:46;9.67;8.52;4.81
82815;PMS5003;72570;46.826;-71.244;2023-09-19T00:19:11;7.57;6;4.24
82815;PMS5003;72570;46.826;-71.244;2023-09-19T00:21:40;9;8.43;3.67
82815;PMS5003;72570;46.826;-71.244;2023-09-19T00:24:08;9.9;8.76;4.48
82815;PMS5003;72570;46.826;-71.244;2023-09-19T00:26:26;10.82;10.82;4.86
82815;PMS5003;72570;46.826;-71.244;2023-09-19T00:28:52;11.86;7.81;4
82815;PMS5003;72570;46.826;-71.244;2023-09-19T00:31:18;10;8.38;4
82815;PMS5003;72570;46.826;-71.244;2023-09-19T00:33:44;11.33;9.71;5.19
82815;PMS5003;72570;46.826;-71.244;2023-09-19T00:36:09;10;8.14;5.24
82815;PMS5003;72570;46.826;-71.244;2023-09-19T00:38:33;11.24;9.19;4.19
82815;PMS5003;72570;46.826;-71.244;2023-09-19T00:40:59;13.1;11;5
82815;PMS5003;72570;46.826;-71.244;2023-09-19T00:43:25;10.09;9;5.09
82815;PMS5003;72570;46.826;-71.244;2023-09-19T00:45:52;12.43;9.43;4.71
82815;PMS5003;72570;46.826;-71.244;2023-09-19T00:48:15;13.48;11.33;6.48
82815;PMS5003;72570;46.826;-71.244;2023-09-19T00:50:42;13.52;13.19;6.95
82815;PMS5003;72570;46.826;-71.244;2023-09-19T00:53:06;13.48;12;6.33
82815;PMS5003;72570;46.826;-71.244;2023-09-19T00:55:32;14.52;13.9;7.52
82815;PMS5003;72570;46.826;-71.244;2023-09-19T00:57:57;20.75;16.55;8.5
82815;PMS5003;72570;46.826;-71.244;2023-09-19T01:00:23;29.55;21.6;12.6
82815;PMS5003;72570;46.826;-71.244;2023-09-19T01:02:48;27.26;22;11.89
82815;PMS5003;72570;46.826;-71.244;2023-09-19T01:05:15;22.71;20.95;12.38
82815;PMS5003;72570;46.826;-71.244;2023-09-19T01:07:42;21.24;19.9;11.76
82815;PMS5003;72570;46.826;-71.244;2023-09-19T01:10:05;19.38;18.33;11.05
82815;PMS5003;72570;46.826;-71.244;2023-09-19T01:12:34;18.71;18.48;10
82815;PMS5003;72570;46.826;-71.244;2023-09-19T01:15:10;17.23;17.23;10.45
82815;PMS5003;72570;46.826;-71.244;2023-09-19T01:17:30;16.32;15.36;8.95
82815;PMS5003;72570;46.826;-71.244;2023-09-19T01:20:18;18.14;17;8.71
82815;PMS5003;72570;46.826;-71.244;2023-09-19T01:22:25;17.14;15.52;8.14
82815;PMS5003;72570;46.826;-71.244;2023-09-19T01:25:07;16.45;14.18;9
82815;PMS5003;72570;46.826;-71.244;2023-09-19T01:27:25;17.32;15.82;8.45
82815;PMS5003;72570;46.826;-71.244;2023-09-19T01:29:42;15.52;13.81;8.14
82815;PMS5003;72570;46.826;-71.244;2023-09-19T01:32:10;12.32;12.32;6.23
82815;PMS5003;72570;46.826;-71.244;2023-09-19T01:34:49;13.64;12.77;6.86
82815;PMS5003;72570;46.826;-71.244;2023-09-19T01:36:58;14.14;11.48;7
82815;PMS5003;72570;46.826;-71.244;2023-09-19T01:39:24;14.71;13.67;7.38
82815;PMS5003;72570;46.826;-71.244;2023-09-19T01:41:54;13.14;11.52;6
82815;PMS5003;72570;46.826;-71.244;2023-09-19T01:44:17;14.23;9.64;5.23
82815;PMS5003;72570;46.826;-71.244;2023-09-19T01:46:42;12.57;11.29;5.9
82815;PMS5003;72570;46.826;-71.244;2023-09-19T01:49:15;13.55;11.14;5.95
82815;PMS5003;72570;46.826;-71.244;2023-09-19T01:51:40;10.09;9.73;5.73
82815;PMS5003;72570;46.826;-71.244;2023-09-19T01:54:03;10.71;9.67;5.1
82815;PMS5003;72570;46.826;-71.244;2023-09-19T01:56:29;13.76;11.52;6
82815;PMS5003;72570;46.826;-71.244;2023-09-19T01:58:56;13.29;12.33;7.14
82815;PMS5003;72570;46.826;-71.244;2023-09-19T02:01:22;13.52;13.29;5.62
82815;PMS5003;72570;46.826;-71.244;2023-09-19T02:03:47;13.67;12.19;7.1
82815;PMS5003;72570;46.826;-71.244;2023-09-19T02:06:14;11.77;11.59;5.82
82815;PMS5003;72570;46.826;-71.244;2023-09-19T02:08:37;12.1;11.71;6.05
82815;PMS5003;72570;46.826;-71.244;2023-09-19T02:11:03;10.71;10.33;6
82815;PMS5003;72570;46.826;-71.244;2023-09-19T02:13:32;13;11.77;6.32
82815;PMS5003;72570;46.826;-71.244;2023-09-19T02:15:54;14.52;10.52;5.29
82815;PMS5003;72570;46.826;-71.244;2023-09-19T02:18:21;13.62;13.43;7.38
82815;PMS5003;72570;46.826;-71.244;2023-09-19T02:20:47;12.71;11.81;7
82815;PMS5003;72570;46.826;-71.244;2023-09-19T02:23:13;9.59;8.91;5.91
82815;PMS5003;72570;46.826;-71.244;2023-09-19T02:25:38;9.52;9.1;6.1
82815;PMS5003;72570;46.826;-71.244;2023-09-19T02:28:04;14.45;10.6;5.95
82815;PMS5003;72570;46.826;-71.244;2023-09-19T02:30:31;9.71;8.29;5.33
82815;PMS5003;72570;46.826;-71.244;2023-09-19T02:32:54;11.29;10.1;5.48
82815;PMS5003;72570;46.826;-71.244;2023-09-19T02:35:20;12.76;11.24;6.62
82815;PMS5003;72570;46.826;-71.244;2023-09-19T02:37:46;13.86;12.67;6.1
82815;PMS5003;72570;46.826;-71.244;2023-09-19T02:40:19;12.95;11.36;7
82815;PMS5003;72570;46.826;-71.244;2023-09-19T02:42:39;13.48;11;4.62
82815;PMS5003;72570;46.826;-71.244;2023-09-19T02:45:05;10.95;10.86;4.86
82815;PMS5003;72570;46.826;-71.244;2023-09-19T02:47:29;13.36;8.68;4.95
82815;PMS5003;72570;46.826;-71.244;2023-09-19T02:49:56;9.1;9.1;5
82815;PMS5003;72570;46.826;-71.244;2023-09-19T02:52:19;11.76;8.62;3.95
82815;PMS5003;72570;46.826;-71.244;2023-09-19T02:54:46;11.86;11.33;6.1
82815;PMS5003;72570;46.826;-71.244;2023-09-19T02:57:14;14.55;9.77;4.64
82815;PMS5003;72570;46.826;-71.244;2023-09-19T02:59:40;13.55;11.15;5.4
82815;PMS5003;72570;46.826;-71.244;2023-09-19T03:02:03;15.14;9.48;6.1
82815;PMS5003;72570;46.826;-71.244;2023-09-19T03:04:31;13.95;11.52;6.14
82815;PMS5003;72570;46.826;-71.244;2023-09-19T03:06:57;15.19;13.48;7.19
82815;PMS5003;72570;46.826;-71.244;2023-09-19T03:09:21;13.1;10.9;6.48
82815;PMS5003;72570;46.826;-71.244;2023-09-19T03:11:46;10.71;10.71;6.33
82815;PMS5003;72570;46.826;-71.244;2023-09-19T03:14:14;9.14;9.14;5.91
82815;PMS5003;72570;46.826;-71.244;2023-09-19T03:16:39;10.9;10.52;5
82815;PMS5003;72570;46.826;-71.244;2023-09-19T03:19:04;11.33;11.05;6.05
82815;PMS5003;72570;46.826;-71.244;2023-09-19T03:21:29;9.81;9.19;5.67
82815;PMS5003;72570;46.826;-71.244;2023-09-19T03:23:56;10.24;9.76;5.19
82815;PMS5003;72570;46.826;-71.244;2023-09-19T03:26:20;8.81;8.81;4.62
82815;PMS5003;72570;46.826;-71.244;2023-09-19T03:28:47;10.48;8.33;4.9
82815;PMS5003;72570;46.826;-71.244;2023-09-19T03:31:14;9.5;8.36;5.09
82815;PMS5003;72570;46.826;-71.244;2023-09-19T03:33:40;10.29;9.57;5.05
82815;PMS5003;72570;46.826;-71.244;2023-09-19T03:36:05;11.43;10.29;5.76
82815;PMS5003;72570;46.826;-71.244;2023-09-19T03:38:34;10.76;10.24;5.52
82815;PMS5003;72570;46.826;-71.244;2023-09-19T03:40:58;7.24;7.24;3.81
82815;PMS5003;72570;46.826;-71.244;2023-09-19T03:43:21;10.81;8.76;4.24
82815;PMS5003;72570;46.826;-71.244;2023-09-19T03:45:47;7.77;7.77;4.41
82815;PMS5003;72570;46.826;-71.244;2023-09-19T03:48:14;9.64;8.91;5.05
82815;PMS5003;72570;46.826;-71.244;2023-09-19T03:50:40;9.23;8.73;5.05
82815;PMS5003;72570;46.826;-71.244;2023-09-19T03:53:04;10.95;10;4
82815;PMS5003;72570;46.826;-71.244;2023-09-19T03:55:30;9.1;9.1;5.05
82815;PMS5003;72570;46.826;-71.244;2023-09-19T03:57:59;7.33;7;4.05
82815;PMS5003;72570;46.826;-71.244;2023-09-19T04:00:27;7.68;7.41;4.59
82815;PMS5003;72570;46.826;-71.244;2023-09-19T04:02:51;7;6.55;3.68
82815;PMS5003;72570;46.826;-71.244;2023-09-19T04:05:18;7.64;6.68;4
82815;PMS5003;72570;46.826;-71.244;2023-09-19T04:07:44;6.95;6.62;3.05
82815;PMS5003;72570;46.826;-71.244;2023-09-19T04:10:09;6.24;4.81;2.76
82815;PMS5003;72570;46.826;-71.244;2023-09-19T04:12:34;7.59;6.45;2.5
82815;PMS5003;72570;46.826;-71.244;2023-09-19T04:14:59;8.91;7.41;3.09
82815;PMS5003;72570;46.826;-71.244;2023-09-19T04:17:26;7.14;6.95;3
82815;PMS5003;72570;46.826;-71.244;2023-09-19T04:19:51;5.67;5.62;2.76
82815;PMS5003;72570;46.826;-71.244;2023-09-19T04:22:20;7.73;7.27;3.59
82815;PMS5003;72570;46.826;-71.244;2023-09-19T04:24:44;6.14;4.09;2.27
82815;PMS5003;72570;46.826;-71.244;2023-09-19T04:27:09;4.38;4.38;3.05
82815;PMS5003;72570;46.826;-71.244;2023-09-19T04:29:35;5.1;4.43;1.57
82815;PMS5003;72570;46.826;-71.244;2023-09-19T04:32:01;5.81;5.81;2.19
82815;PMS5003;72570;46.826;-71.244;2023-09-19T04:34:26;5.67;5.67;1.9
82815;PMS5003;72570;46.826;-71.244;2023-09-19T04:36:52;5.67;4.67;2.81
82815;PMS5003;72570;46.826;-71.244;2023-09-19T04:39:16;7.05;6.18;2.91
82815;PMS5003;72570;46.826;-71.244;2023-09-19T04:41:43;5.76;4.38;1.76
82815;PMS5003;72570;46.826;-71.244;2023-09-19T04:44:08;4.33;4.1;2
82815;PMS5003;72570;46.826;-71.244;2023-09-19T04:46:31;4.24;4.1;1.95
82815;PMS5003;72570;46.826;-71.244;2023-09-19T04:48:56;5.48;5.48;2.24
82815;PMS5003;72570;46.826;-71.244;2023-09-19T04:51:24;5.62;4.38;1.48
82815;PMS5003;72570;46.826;-71.244;2023-09-19T04:53:49;4.67;4.67;1.24
82815;PMS5003;72570;46.826;-71.244;2023-09-19T04:56:16;3.64;3.64;1.05
82815;PMS5003;72570;46.826;-71.244;2023-09-19T04:58:39;4.86;3.52;1.05
82815;PMS5003;72570;46.826;-71.244;2023-09-19T05:01:05;4.57;4.05;1.24
82815;PMS5003;72570;46.826;-71.244;2023-09-19T05:03:30;4.43;4.38;2.48
82815;PMS5003;72570;46.826;-71.244;2023-09-19T05:05:55;5;3.81;1.1
82815;PMS5003;72570;46.826;-71.244;2023-09-19T05:08:21;3.52;3.52;1.48
82815;PMS5003;72570;46.826;-71.244;2023-09-19T05:10:47;3.33;3.19;1.48
82815;PMS5003;72570;46.826;-71.244;2023-09-19T05:13:11;3.73;2.91;0.77
82815;PMS5003;72570;46.826;-71.244;2023-09-19T05:15:37;5.19;4.71;1.24
82815;PMS5003;72570;46.826;-71.244;2023-09-19T05:18:01;4.24;3.86;2
82815;PMS5003;72570;46.826;-71.244;2023-09-19T05:20:29;5.67;4.05;1.52
82815;PMS5003;72570;46.826;-71.244;2023-09-19T05:22:57;3.67;3.67;1.76
82815;PMS5003;72570;46.826;-71.244;2023-09-19T05:25:18;3.52;3.24;1.05
82815;PMS5003;72570;46.826;-71.244;2023-09-19T05:27:42;5.24;3.14;2.19
82815;PMS5003;72570;46.826;-71.244;2023-09-19T05:30:10;2.95;2.32;1.05
82815;PMS5003;72570;46.826;-71.244;2023-09-19T05:32:35;4.67;4.14;1.71
82815;PMS5003;72570;46.826;-71.244;2023-09-19T05:34:59;2.9;2.9;1.62
82815;PMS5003;72570;46.826;-71.244;2023-09-19T05:37:26;4.1;3.24;1.05
82815;PMS5003;72570;46.826;-71.244;2023-09-19T05:39:50;3.67;3.62;1.38
82815;PMS5003;72570;46.826;-71.244;2023-09-19T05:42:14;5.52;5;1.33
82815;PMS5003;72570;46.826;-71.244;2023-09-19T05:44:41;2.48;2.48;1.05
82815;PMS5003;72570;46.826;-71.244;2023-09-19T05:47:07;3.14;2.09;1.05
82815;PMS5003;72570;46.826;-71.244;2023-09-19T05:49:31;4.19;3.95;1.24
82815;PMS5003;72570;46.826;-71.244;2023-09-19T05:51:57;3.67;3.19;1.52
82815;PMS5003;72570;46.826;-71.244;2023-09-19T05:54:21;4.43;4.43;1.67
82815;PMS5003;72570;46.826;-71.244;2023-09-19T05:56:46;5.19;3.67;1.52
82815;PMS5003;72570;46.826;-71.244;2023-09-19T05:59:13;3;2.05;1
82815;PMS5003;72570;46.826;-71.244;2023-09-19T06:01:38;4.67;4.67;1.05
82815;PMS5003;72570;46.826;-71.244;2023-09-19T06:04:06;2.55;2.23;0.41
82815;PMS5003;72570;46.826;-71.244;2023-09-19T06:06:31;3.67;3.1;1.95
82815;PMS5003;72570;46.826;-71.244;2023-09-19T06:08:57;4;3.24;1
82815;PMS5003;72570;46.826;-71.244;2023-09-19T06:11:20;3.19;3.19;1.1
82815;PMS5003;72570;46.826;-71.244;2023-09-19T06:13:46;3.81;3.81;0.76
82815;PMS5003;72570;46.826;-71.244;2023-09-19T06:16:11;3.57;3.33;1
82815;PMS5003;72570;46.826;-71.244;2023-09-19T06:18:35;2.33;2.33;0.24
82815;PMS5003;72570;46.826;-71.244;2023-09-19T06:21:04;3.09;3.09;1
82815;PMS5003;72570;46.826;-71.244;2023-09-19T06:23:29;2.81;2.14;0.62
82815;PMS5003;72570;46.826;-71.244;2023-09-19T06:25:52;3.05;3.05;0.62
82815;PMS5003;72570;46.826;-71.244;2023-09-19T06:28:18;4.62;3;1.05
82815;PMS5003;72570;46.826;-71.244;2023-09-19T06:30:43;3.29;3.05;0.76
82815;PMS5003;72570;46.826;-71.244;2023-09-19T06:33:09;2.57;1.76;0.48
82815;PMS5003;72570;46.826;-71.244;2023-09-19T06:35:33;3.33;1.62;0
82815;PMS5003;72570;46.826;-71.244;2023-09-19T06:38:02;3.32;3;1
82815;PMS5003;72570;46.826;-71.244;2023-09-19T06:40:26;5.48;2.9;1.05
82815;PMS5003;72570;46.826;-71.244;2023-09-19T06:42:51;2;2;0.36
82815;PMS5003;72570;46.826;-71.244;2023-09-19T06:45:18;2.05;2.05;1.05
82815;PMS5003;72570;46.826;-71.244;2023-09-19T06:47:42;1.76;1.76;0.19
82815;PMS5003;72570;46.826;-71.244;2023-09-19T06:50:09;3.67;3.24;0.62
82815;PMS5003;72570;46.826;-71.244;2023-09-19T06:52:34;4.29;4.14;0.62
82815;PMS5003;72570;46.826;-71.244;2023-09-19T06:54:59;1.23;1.05;0.27
82815;PMS5003;72570;46.826;-71.244;2023-09-19T06:57:24;2.52;2.38;0.52
82815;PMS5003;72570;46.826;-71.244;2023-09-19T06:59:49;4.48;3.9;1.48
82815;PMS5003;72570;46.826;-71.244;2023-09-19T07:02:15;1.9;1.9;0.48
82815;PMS5003;72570;46.826;-71.244;2023-09-19T07:04:41;2.9;2.48;0.81
82815;PMS5003;72570;46.826;-71.244;2023-09-19T07:07:06;2.62;1.9;0.38
82815;PMS5003;72570;46.826;-71.244;2023-09-19T07:09:31;2.38;1.67;1.05
82815;PMS5003;72570;46.826;-71.244;2023-09-19T07:11:57;2.73;0.55;0
82815;PMS5003;72570;46.826;-71.244;2023-09-19T07:14:22;1.48;1.33;0
82815;PMS5003;72570;46.826;-71.244;2023-09-19T07:16:48;2.19;2.19;0
82815;PMS5003;72570;46.826;-71.244;2023-09-19T07:19:12;2;2;0.52
82815;PMS5003;72570;46.826;-71.244;2023-09-19T07:21:37;1;1;0.1
82815;PMS5003;72570;46.826;-71.244;2023-09-19T07:24:04;1.81;1.52;0.24
82815;PMS5003;72570;46.826;-71.244;2023-09-19T07:26:28;2.48;0.95;0.33
82815;PMS5003;72570;46.826;-71.244;2023-09-19T07:28:53;0.91;0.91;0
82815;PMS5003;72570;46.826;-71.244;2023-09-19T07:31:19;2.62;1.33;0
82815;PMS5003;72570;46.826;-71.244;2023-09-19T07:33:45;0.95;0.71;0.05
82815;PMS5003;72570;46.826;-71.244;2023-09-19T07:36:10;2.33;1.81;0.05
82815;PMS5003;72570;46.826;-71.244;2023-09-19T07:38:36;1.86;1.81;0.05
82815;PMS5003;72570;46.826;-71.244;2023-09-19T07:41:01;1.81;1.52;0.19
82815;PMS5003;72570;46.826;-71.244;2023-09-19T07:43:24;3.38;1.52;0
82815;PMS5003;72570;46.826;-71.244;2023-09-19T07:45:52;1.68;1.68;0.09
82815;PMS5003;72570;46.826;-71.244;2023-09-19T07:48:17;4.05;1.14;0
82815;PMS5003;72570;46.826;-71.244;2023-09-19T07:50:41;4.52;1.1;0.19
82815;PMS5003;72570;46.826;-71.244;2023-09-19T07:53:08;1.67;0.9;0.05
82815;PMS5003;72570;46.826;-71.244;2023-09-19T07:55:31;1.1;1.1;0
82815;PMS5003;72570;46.826;-71.244;2023-09-19T07:57:58;1.19;1.19;0.19
82815;PMS5003;72570;46.826;-71.244;2023-09-19T08:00:23;0.24;0.24;0
82815;PMS5003;72570;46.826;-71.244;2023-09-19T08:02:50;2.23;1.23;0
82815;PMS5003;72570;46.826;-71.244;2023-09-19T08:05:13;1;1;0
82815;PMS5003;72570;46.826;-71.244;2023-09-19T08:07:39;1.76;1.76;0
82815;PMS5003;72570;46.826;-71.244;2023-09-19T08:10:06;2.05;0.81;0.33
82815;PMS5003;72570;46.826;-71.244;2023-09-19T08:12:29;1.86;0.76;0
82815;PMS5003;72570;46.826;-71.244;2023-09-19T08:14:54;2.19;2.05;0.1
82815;PMS5003;72570;46.826;-71.244;2023-09-19T08:17:26;2.59;1.36;0.86
82815;PMS5003;72570;46.826;-71.244;2023-09-19T08:19:54;1.77;1.77;0.77
82815;PMS5003;72570;46.826;-71.244;2023-09-19T08:22:18;1.05;1.05;0
82815;PMS5003;72570;46.826;-71.244;2023-09-19T08:24:42;2.9;1.48;0.05
82815;PMS5003;72570;46.826;-71.244;2023-09-19T08:27:08;2.19;1.38;0
82815;PMS5003;72570;46.826;-71.244;2023-09-19T08:29:33;1.52;1.52;0
82815;PMS5003;72570;46.826;-71.244;2023-09-19T08:31:58;2.48;0.62;0
82815;PMS5003;72570;46.826;-71.244;2023-09-19T08:34:26;2;1.91;0.05
82815;PMS5003;72570;46.826;-71.244;2023-09-19T08:36:50;1.33;1.33;0.05
82815;PMS5003;72570;46.826;-71.244;2023-09-19T08:39:14;1.05;1.05;0
82815;PMS5003;72570;46.826;-71.244;2023-09-19T08:41:39;1.19;1.19;0.05
82815;PMS5003;72570;46.826;-71.244;2023-09-19T08:44:06;2.76;0.86;0
82815;PMS5003;72570;46.826;-71.244;2023-09-19T08:46:29;3.57;0.24;0.05
82815;PMS5003;72570;46.826;-71.244;2023-09-19T08:49:03;1.29;1.29;0
82815;PMS5003;72570;46.826;-71.244;2023-09-19T08:51:23;0.68;0.05;0.05
82815;PMS5003;72570;46.826;-71.244;2023-09-19T08:53:50;1.33;1.33;0.05
82815;PMS5003;72570;46.826;-71.244;2023-09-19T08:56:12;0.67;0.67;0
82815;PMS5003;72570;46.826;-71.244;2023-09-19T08:58:41;0.43;0.19;0
82815;PMS5003;72570;46.826;-71.244;2023-09-19T09:13:15;1.1;0.67;0
82815;PMS5003;72570;46.826;-71.244;2023-09-19T09:13:38;2.73;0.86;0
82815;PMS5003;72570;46.826;-71.244;2023-09-19T09:13:53;1.05;1.05;0.05
82815;PMS5003;72570;46.826;-71.244;2023-09-19T09:14:08;0.64;0.05;0
82815;PMS5003;72570;46.826;-71.244;2023-09-19T09:14:20;0.05;0.05;0
82815;PMS5003;72570;46.826;-71.244;2023-09-19T09:14:50;1.77;1.77;0
82815;PMS5003;72570;46.826;-71.244;2023-09-19T09:17:16;1.05;1.05;0.19
82815;PMS5003;72570;46.826;-71.244;2023-09-19T09:19:40;2.29;1;0
82815;PMS5003;72570;46.826;-71.244;2023-09-19T09:22:07;1.52;1;0
82815;PMS5003;72570;46.826;-71.244;2023-09-19T09:24:32;1.64;1.45;0
82815;PMS5003;72570;46.826;-71.244;2023-09-19T09:26:57;2.33;1.9;0
82815;PMS5003;72570;46.826;-71.244;2023-09-19T09:29:38;0.76;0.76;0.05
82815;PMS5003;72570;46.826;-71.244;2023-09-19T09:31:46;1.62;1.62;0
82815;PMS5003;72570;46.826;-71.244;2023-09-19T09:34:13;1.95;1.95;0
82815;PMS5003;72570;46.826;-71.244;2023-09-19T09:36:42;0.05;0.05;0
82815;PMS5003;72570;46.826;-71.244;2023-09-19T09:39:04;0.95;0.95;0.05
82815;PMS5003;72570;46.826;-71.244;2023-09-19T09:41:37;1.64;1.64;0
82815;PMS5003;72570;46.826;-71.244;2023-09-19T09:43:54;0.05;0.05;0.05
82815;PMS5003;72570;46.826;-71.244;2023-09-19T09:47:40;1.62;1.05;0.05
82815;PMS5003;72570;46.826;-71.244;2023-09-19T09:48:45;1.05;1.05;0.05
82815;PMS5003;72570;46.826;-71.244;2023-09-19T09:51:09;1;1;0.24
82815;PMS5003;72570;46.826;-71.244;2023-09-19T09:53:34;0.9;0.52;0
82815;PMS5003;72570;46.826;-71.244;2023-09-19T09:56:03;0.48;0.48;0.05
82815;PMS5003;72570;46.826;-71.244;2023-09-19T09:58:33;2.18;2.18;0.05
82815;PMS5003;72570;46.826;-71.244;2023-09-19T10:00:58;1;0.9;0
82815;PMS5003;72570;46.826;-71.244;2023-09-19T10:03:30;1.05;0.9;0
82815;PMS5003;72570;46.826;-71.244;2023-09-19T10:05:45;1.62;1.62;0.19
82815;PMS5003;72570;46.826;-71.244;2023-09-19T10:08:13;3.1;1.19;0.62
82815;PMS5003;72570;46.826;-71.244;2023-09-19T10:10:44;2.33;2.19;1
82815;PMS5003;72570;46.826;-71.244;2023-09-19T10:13:03;0.67;0;0
82815;PMS5003;72570;46.826;-71.244;2023-09-19T10:15:25;0.82;0.82;0
82815;PMS5003;72570;46.826;-71.244;2023-09-19T10:17:51;3;1.48;0.05
82815;PMS5003;72570;46.826;-71.244;2023-09-19T10:20:33;1.9;1.62;0.19
82815;PMS5003;72570;46.826;-71.244;2023-09-19T10:22:42;0.38;0.38;0
82815;PMS5003;72570;46.826;-71.244;2023-09-19T10:25:08;3.62;2.29;0.1
82815;PMS5003;72570;46.826;-71.244;2023-09-19T10:27:39;1.48;1.38;0
82815;PMS5003;72570;46.826;-71.244;2023-09-19T10:29:57;1.91;1.91;0.09
82815;PMS5003;72570;46.826;-71.244;2023-09-19T10:32:23;2.09;1.45;0.64
82815;PMS5003;72570;46.826;-71.244;2023-09-19T10:34:47;0.95;0.81;0
82815;PMS5003;72570;46.826;-71.244;2023-09-19T10:37:13;2;2;0
82815;PMS5003;72570;46.826;-71.244;2023-09-19T10:39:39;2.9;2.9;0
82815;PMS5003;72570;46.826;-71.244;2023-09-19T10:42:06;1.48;1.48;0.05
82815;PMS5003;72570;46.826;-71.244;2023-09-19T10:44:29;2.48;2.48;0.76
82815;PMS5003;72570;46.826;-71.244;2023-09-19T10:46:55;1.52;1.52;0.05
82815;PMS5003;72570;46.826;-71.244;2023-09-19T10:49:22;1.05;1.05;0
82815;PMS5003;72570;46.826;-71.244;2023-09-19T10:51:45;1.38;0.95;0.05
82815;PMS5003;72570;46.826;-71.244;2023-09-19T10:54:13;1.62;1.52;0.1
82815;PMS5003;72570;46.826;-71.244;2023-09-19T10:56:37;0.76;0.76;0
82815;PMS5003;72570;46.826;-71.244;2023-09-19T10:59:06;0.95;0.95;0.05
82815;PMS5003;72570;46.826;-71.244;2023-09-19T11:01:42;2.62;1.38;0.33
82815;PMS5003;72570;46.826;-71.244;2023-09-19T11:04:22;2.33;2.33;0.1
82815;PMS5003;72570;46.826;-71.244;2023-09-19T11:06:19;1.32;0.77;0.05
82815;PMS5003;72570;46.826;-71.244;2023-09-19T11:09:22;1.48;1.38;0
82815;PMS5003;72570;46.826;-71.244;2023-09-19T11:11:40;3.48;2.19;0.52
82815;PMS5003;72570;46.826;-71.244;2023-09-19T11:13:35;1.48;1.33;0
82815;PMS5003;72570;46.826;-71.244;2023-09-19T11:16:20;1;1;0.05
82815;PMS5003;72570;46.826;-71.244;2023-09-19T11:18:56;1.67;1.67;0.05
82815;PMS5003;72570;46.826;-71.244;2023-09-19T11:21:55;1.76;1.76;0.19
82815;PMS5003;72570;46.826;-71.244;2023-09-19T11:23:31;0.64;0.64;0
82815;PMS5003;72570;46.826;-71.244;2023-09-19T11:25:57;0.05;0.05;0
82815;PMS5003;72570;46.826;-71.244;2023-09-19T11:28:39;1.62;1.62;0
82815;PMS5003;72570;46.826;-71.244;2023-09-19T11:30:33;0.19;0.05;0
82815;PMS5003;72570;46.826;-71.244;2023-09-19T11:33:24;2.48;2.05;0.05
82815;PMS5003;72570;46.826;-71.244;2023-09-19T11:35:22;0.76;0.76;0
82815;PMS5003;72570;46.826;-71.244;2023-09-19T11:38:17;1.19;1.19;0.05
82815;PMS5003;72570;46.826;-71.244;2023-09-19T11:40:18;3.55;1.91;0.05
82815;PMS5003;72570;46.826;-71.244;2023-09-19T11:42:46;0.24;0.24;0
82815;PMS5003;72570;46.826;-71.244;2023-09-19T11:45:05;1.1;1.1;0
82815;PMS5003;72570;46.826;-71.244;2023-09-19T11:47:30;1.62;1.62;0
82815;PMS5003;72570;46.826;-71.244;2023-09-19T11:49:53;0.95;0.95;0
82815;PMS5003;72570;46.826;-71.244;2023-09-19T11:52:24;0.9;0.9;0
82815;PMS5003;72570;46.826;-71.244;2023-09-19T11:54:45;0.19;0.19;0.05
82815;PMS5003;72570;46.826;-71.244;2023-09-19T11:57:11;1.82;1.5;0
82815;PMS5003;72570;46.826;-71.244;2023-09-19T11:59:39;0.05;0.05;0.05
82815;PMS5003;72570;46.826;-71.244;2023-09-19T12:02:03;1;1;0
82815;PMS5003;72570;46.826;-71.244;2023-09-19T12:04:36;0;0;0
82815;PMS5003;72570;46.826;-71.244;2023-09-19T12:06:57;1.24;1.1;0.05
82815;PMS5003;72570;46.826;-71.244;2023-09-19T12:09:19;1.81;0.9;0
82815;PMS5003;72570;46.826;-71.244;2023-09-19T12:11:44;1.48;1.48;0.05
82815;PMS5003;72570;46.826;-71.244;2023-09-19T12:14:07;0.14;0;0
82815;PMS5003;72570;46.826;-71.244;2023-09-19T12:16:34;0.95;0.05;0
82815;PMS5003;72570;46.826;-71.244;2023-09-19T12:18:59;0.19;0.19;0
82815;PMS5003;72570;46.826;-71.244;2023-09-19T12:21:31;0.05;0.05;0
82815;PMS5003;72570;46.826;-71.244;2023-09-19T12:23:58;0.1;0.1;0
82815;PMS5003;72570;46.826;-71.244;2023-09-19T12:26:15;0.48;0.48;0
82815;PMS5003;72570;46.826;-71.244;2023-09-19T12:28:42;0.9;0;0
82815;PMS5003;72570;46.826;-71.244;2023-09-19T12:31:08;0.91;0.05;0
82815;PMS5003;72570;46.826;-71.244;2023-09-19T12:33:32;0.9;0.9;0
82815;PMS5003;72570;46.826;-71.244;2023-09-19T12:35:55;0.48;0.48;0
82815;PMS5003;72570;46.826;-71.244;2023-09-19T12:38:25;0.33;0.33;0
82815;PMS5003;72570;46.826;-71.244;2023-09-19T12:40:51;2.05;1.05;0.05
82815;PMS5003;72570;46.826;-71.244;2023-09-19T12:43:15;2.43;0.81;0
82815;PMS5003;72570;46.826;-71.244;2023-09-19T12:45:37;0.33;0.33;0
82815;PMS5003;72570;46.826;-71.244;2023-09-19T12:48:24;0.18;0.18;0
82815;PMS5003;72570;46.826;-71.244;2023-09-19T12:50:30;0.05;0.05;0
82815;PMS5003;72570;46.826;-71.244;2023-09-19T12:52:56;1.38;0;0
82815;PMS5003;72570;46.826;-71.244;2023-09-19T12:55:23;0.05;0.05;0
82815;PMS5003;72570;46.826;-71.244;2023-09-19T12:57:46;0;0;0
82815;PMS5003;72570;46.826;-71.244;2023-09-19T13:00:12;0.1;0.1;0
82815;PMS5003;72570;46.826;-71.244;2023-09-19T13:02:35;0;0;0
82815;PMS5003;72570;46.826;-71.244;2023-09-19T13:05:00;0.09;0;0
82815;PMS5003;72570;46.826;-71.244;2023-09-19T13:07:45;0;0;0
82815;PMS5003;72570;46.826;-71.244;2023-09-19T13:10:05;0;0;0
82815;PMS5003;72570;46.826;-71.244;2023-09-19T13:12:44;0;0;0
82815;PMS5003;72570;46.826;-71.244;2023-09-19T13:14:45;0.95;0;0
82815;PMS5003;72570;46.826;-71.244;2023-09-19T13:17:16;0.48;0.48;0
82815;PMS5003;72570;46.826;-71.244;2023-09-19T13:19:37;0;0;0
82815;PMS5003;72570;46.826;-71.244;2023-09-19T13:21:59;0.59;0.59;0
82815;PMS5003;72570;46.826;-71.244;2023-09-19T13:24:26;0.05;0.05;0
82815;PMS5003;72570;46.826;-71.244;2023-09-19T13:26:49;0.05;0.05;0
82815;PMS5003;72570;46.826;-71.244;2023-09-19T13:29:18;0.05;0.05;0
82815;PMS5003;72570;46.826;-71.244;2023-09-19T13:31:42;0;0;0
82815;PMS5003;72570;46.826;-71.244;2023-09-19T13:34:04;0;0;0
82815;PMS5003;72570;46.826;-71.244;2023-09-19T13:36:32;0;0;0
82815;PMS5003;72570;46.826;-71.244;2023-09-19T13:38:56;0;0;0
82815;PMS5003;72570;46.826;-71.244;2023-09-19T13:41:21;0;0;0
82815;PMS5003;72570;46.826;-71.244;2023-09-19T13:43:48;0;0;0
82815;PMS5003;72570;46.826;-71.244;2023-09-19T13:46:16;0.1;0;0
82815;PMS5003;72570;46.826;-71.244;2023-09-19T13:48:36;0;0;0
82815;PMS5003;72570;46.826;-71.244;2023-09-19T13:51:03;0;0;0
82815;PMS5003;72570;46.826;-71.244;2023-09-19T13:53:27;0.48;0;0
82815;PMS5003;72570;46.826;-71.244;2023-09-19T13:55:54;0;0;0
82815;PMS5003;72570;46.826;-71.244;2023-09-19T13:58:17;0.05;0.05;0
82815;PMS5003;72570;46.826;-71.244;2023-09-19T14:00:45;0.1;0.1;0
82815;PMS5003;72570;46.826;-71.244;2023-09-19T14:03:08;0.38;0.05;0
82815;PMS5003;72570;46.826;-71.244;2023-09-19T14:05:35;0;0;0
82815;PMS5003;72570;46.826;-71.244;2023-09-19T14:08:01;0;0;0
82815;PMS5003;72570;46.826;-71.244;2023-09-19T14:10:25;0;0;0
82815;PMS5003;72570;46.826;-71.244;2023-09-19T14:12:51;0.05;0.05;0